PWSweather.com
Personal Weather Stations
Station Observations
PENICUIKWS
PenicuikGB

PenicuikGB

Lat: 55.830932, Lon: -3.224533000000065

Elevation: 166

Station Type: Fine Offset

http://weather.penicuik.org

High Low Average
Temperature 70.3°F21.3°C 42.3°F5.7°C 53.5°F11.9°C
Dew Point 58.8°F14.9°C 42.0°F5.6°C 48.2°F9.0°C
Winds 3.1 mph 5.0 kmh 0.5 mph 0.8 kmh 2.0 mph S3.2 kmh S
Wind Gusts 7.6 mph12.2 kmh 1.6 mph2.6 kmh 3.0 mph4.8 kmh
Humidity 99% 56% 84%
Pressure 29.95 in1014.2 mb 29.87 in1011.5 mb -
Precipitation 0.07 in1.8 mm - -
Hour Temp Dew Point Humidity Winds Wind Gusts Pressure Precip Precip Rate Daily Precip Total
12:00 AM 43.3°F6.3°C 42.8°F6.0°C 98% 1.3 mph SSW2.1 kmh SSW 1.6 mph2.6 kmh 29.94 in1013.9 mb 0.00 in0.0 mm 0.00 in0.0 mm 0.00 in0.0 mm
12:15 AM 43.2°F6.2°C 42.6°F5.9°C 98% 0.9 mph SW1.4 kmh SW 2.2 mph3.5 kmh 29.93 in1013.5 mb 0.00 in0.0 mm 0.00 in0.0 mm 0.00 in0.0 mm
12:30 AM 43.2°F6.2°C 42.6°F5.9°C 98% 1.3 mph SSW2.1 kmh SSW 2.2 mph3.5 kmh 29.93 in1013.5 mb 0.00 in0.0 mm 0.00 in0.0 mm 0.00 in0.0 mm
01:00 AM 43.3°F6.3°C 42.8°F6.0°C 98% 1.1 mph SW1.8 kmh SW 1.6 mph2.6 kmh 29.92 in1013.2 mb 0.00 in0.0 mm 0.00 in0.0 mm 0.00 in0.0 mm
01:15 AM 43.2°F6.2°C 42.6°F5.9°C 98% 1.1 mph SW1.8 kmh SW 1.6 mph2.6 kmh 29.92 in1013.2 mb 0.00 in0.0 mm 0.00 in0.0 mm 0.00 in0.0 mm
01:30 AM 42.8°F6.0°C 42.3°F5.7°C 98% 1.6 mph S2.6 kmh S 2.2 mph3.5 kmh 29.91 in1012.9 mb 0.00 in0.0 mm 0.00 in0.0 mm 0.00 in0.0 mm
01:45 AM 42.3°F5.7°C 42.0°F5.6°C 99% 2.1 mph SW3.4 kmh SW 2.2 mph3.5 kmh 29.91 in1012.9 mb 0.00 in0.0 mm 0.00 in0.0 mm 0.00 in0.0 mm
02:00 AM 42.6°F5.9°C 42.4°F5.8°C 99% 2.0 mph SSW3.2 kmh SSW 3.1 mph5.0 kmh 29.90 in1012.5 mb 0.00 in0.0 mm 0.00 in0.0 mm 0.00 in0.0 mm
02:15 AM 44.1°F6.7°C 43.5°F6.4°C 98% 1.3 mph WSW2.1 kmh WSW 4.5 mph7.2 kmh 29.90 in1012.5 mb 0.00 in0.0 mm 0.00 in0.0 mm 0.00 in0.0 mm
02:30 AM 44.6°F7.0°C 43.8°F6.6°C 97% 1.6 mph WSW2.6 kmh WSW 4.5 mph7.2 kmh 29.89 in1012.2 mb 0.00 in0.0 mm 0.00 in0.0 mm 0.00 in0.0 mm
03:00 AM 45.7°F7.6°C 44.9°F7.2°C 97% 1.7 mph SW2.7 kmh SW 3.1 mph5.0 kmh 29.89 in1012.2 mb 0.00 in0.0 mm 0.00 in0.0 mm 0.00 in0.0 mm
03:15 AM 46.0°F7.8°C 45.2°F7.3°C 97% 2.4 mph SW3.9 kmh SW 3.8 mph6.1 kmh 29.88 in1011.9 mb 0.00 in0.0 mm 0.00 in0.0 mm 0.00 in0.0 mm
03:30 AM 46.4°F8.0°C 45.9°F7.7°C 98% 1.4 mph W2.3 kmh W 2.2 mph3.5 kmh 29.88 in1011.9 mb 0.00 in0.0 mm 0.00 in0.0 mm 0.00 in0.0 mm
03:45 AM 46.6°F8.1°C 45.5°F7.5°C 96% 1.6 mph WSW2.6 kmh WSW 3.1 mph5.0 kmh 29.88 in1011.9 mb 0.00 in0.0 mm 0.00 in0.0 mm 0.00 in0.0 mm
04:00 AM 46.9°F8.3°C 45.6°F7.6°C 95% 1.4 mph ENE2.3 kmh ENE 2.2 mph3.5 kmh 29.88 in1011.9 mb 0.00 in0.0 mm 0.00 in0.0 mm 0.00 in0.0 mm
04:15 AM 46.8°F8.2°C 45.1°F7.3°C 94% 1.7 mph SW2.7 kmh SW 4.5 mph7.2 kmh 29.88 in1011.9 mb 0.00 in0.0 mm 0.00 in0.0 mm 0.00 in0.0 mm
04:30 AM 46.6°F8.1°C 44.9°F7.2°C 94% 1.6 mph S2.6 kmh S 4.5 mph7.2 kmh 29.88 in1011.9 mb 0.01 in0.3 mm 0.04 in1.0 mm 0.01 in0.3 mm
04:45 AM 46.4°F8.0°C 44.8°F7.1°C 94% 1.1 mph NNE1.8 kmh NNE 2.2 mph3.5 kmh 29.88 in1011.9 mb 0.02 in0.5 mm 0.04 in1.0 mm 0.02 in0.5 mm
05:00 AM 46.6°F8.1°C 45.2°F7.3°C 95% 1.8 mph NE2.9 kmh NE 2.2 mph3.5 kmh 29.87 in1011.5 mb 0.02 in0.5 mm 0.00 in0.0 mm 0.02 in0.5 mm
05:15 AM 46.8°F8.2°C 45.7°F7.6°C 96% 2.3 mph NNE3.7 kmh NNE 3.8 mph6.1 kmh 29.87 in1011.5 mb 0.02 in0.5 mm 0.00 in0.0 mm 0.02 in0.5 mm
05:30 AM 46.9°F8.3°C 46.1°F7.8°C 97% 2.1 mph WSW3.4 kmh WSW 3.1 mph5.0 kmh 29.87 in1011.5 mb 0.01 in0.3 mm 0.00 in0.0 mm 0.02 in0.5 mm
05:45 AM 47.5°F8.6°C 46.7°F8.2°C 97% 1.8 mph NNE2.9 kmh NNE 3.1 mph5.0 kmh 29.87 in1011.5 mb 0.00 in0.0 mm 0.00 in0.0 mm 0.02 in0.5 mm
06:00 AM 48.0°F8.9°C 47.5°F8.6°C 98% 2.1 mph N3.4 kmh N 3.1 mph5.0 kmh 29.88 in1011.9 mb 0.00 in0.0 mm 0.00 in0.0 mm 0.02 in0.5 mm
06:30 AM 48.7°F9.3°C 47.9°F8.8°C 97% 2.0 mph N3.2 kmh N 3.1 mph5.0 kmh 29.89 in1012.2 mb 0.00 in0.0 mm 0.00 in0.0 mm 0.02 in0.5 mm
06:45 AM 48.9°F9.4°C 48.1°F8.9°C 97% 1.1 mph NE1.8 kmh NE 2.2 mph3.5 kmh 29.88 in1011.9 mb 0.00 in0.0 mm 0.00 in0.0 mm 0.02 in0.5 mm
07:00 AM 49.1°F9.5°C 48.3°F9.1°C 97% 1.8 mph NE2.9 kmh NE 2.2 mph3.5 kmh 29.88 in1011.9 mb 0.04 in1.0 mm 0.05 in1.3 mm 0.06 in1.5 mm
07:30 AM 49.5°F9.7°C 48.6°F9.2°C 97% 1.8 mph N2.9 kmh N 3.1 mph5.0 kmh 29.89 in1012.2 mb 0.05 in1.3 mm 0.02 in0.5 mm 0.07 in1.8 mm
07:45 AM 50.5°F10.3°C 49.4°F9.7°C 96% 1.9 mph NNE3.1 kmh NNE 3.8 mph6.1 kmh 29.89 in1012.2 mb 0.05 in1.3 mm 0.00 in0.0 mm 0.07 in1.8 mm
08:30 AM 50.5°F10.3°C 49.4°F9.7°C 96% 1.6 mph NNE2.6 kmh NNE 2.2 mph3.5 kmh 29.90 in1012.5 mb 0.00 in0.0 mm 0.00 in0.0 mm 0.07 in1.8 mm
08:45 AM 50.5°F10.3°C 49.4°F9.7°C 96% 1.8 mph NNE2.9 kmh NNE 3.1 mph5.0 kmh 29.89 in1012.2 mb 0.00 in0.0 mm 0.00 in0.0 mm 0.07 in1.8 mm
09:00 AM 52.9°F11.6°C 51.5°F10.8°C 95% 0.5 mph NNE0.8 kmh NNE 1.6 mph2.6 kmh 29.89 in1012.2 mb 0.00 in0.0 mm 0.00 in0.0 mm 0.07 in1.8 mm
09:15 AM 53.6°F12.0°C 51.9°F11.1°C 94% 1.2 mph N1.9 kmh N 2.2 mph3.5 kmh 29.90 in1012.5 mb 0.00 in0.0 mm 0.00 in0.0 mm 0.07 in1.8 mm
09:30 AM 54.1°F12.3°C 51.9°F11.1°C 92% 1.1 mph SW1.8 kmh SW 1.6 mph2.6 kmh 29.90 in1012.5 mb 0.00 in0.0 mm 0.00 in0.0 mm 0.07 in1.8 mm
09:45 AM 62.4°F16.9°C 58.8°F14.9°C 88% 1.0 mph SE1.6 kmh SE 2.2 mph3.5 kmh 29.90 in1012.5 mb 0.00 in0.0 mm 0.00 in0.0 mm 0.07 in1.8 mm
10:00 AM 69.4°F20.8°C 55.4°F13.0°C 61% 2.6 mph NE4.2 kmh NE 3.8 mph6.1 kmh 29.90 in1012.5 mb 0.00 in0.0 mm 0.00 in0.0 mm 0.07 in1.8 mm
10:15 AM 67.6°F19.8°C 52.8°F11.6°C 59% 2.0 mph N3.2 kmh N 3.1 mph5.0 kmh 29.90 in1012.5 mb 0.00 in0.0 mm 0.00 in0.0 mm 0.07 in1.8 mm
10:30 AM 64.0°F17.8°C 51.2°F10.7°C 63% 1.4 mph SE2.3 kmh SE 1.6 mph2.6 kmh 29.91 in1012.9 mb 0.00 in0.0 mm 0.00 in0.0 mm 0.07 in1.8 mm
10:45 AM 65.8°F18.8°C 52.9°F11.6°C 63% 2.3 mph S3.7 kmh S 5.4 mph8.7 kmh 29.90 in1012.5 mb 0.00 in0.0 mm 0.00 in0.0 mm 0.07 in1.8 mm
11:00 AM 66.2°F19.0°C 50.1°F10.1°C 56% 1.9 mph S3.1 kmh S 3.1 mph5.0 kmh 29.89 in1012.2 mb 0.00 in0.0 mm 0.00 in0.0 mm 0.07 in1.8 mm
11:15 AM 63.3°F17.4°C 52.2°F11.2°C 67% 1.7 mph ENE2.7 kmh ENE 4.5 mph7.2 kmh 29.91 in1012.9 mb 0.00 in0.0 mm 0.00 in0.0 mm 0.07 in1.8 mm
11:30 AM 64.8°F18.2°C 50.1°F10.1°C 59% 1.7 mph WSW2.7 kmh WSW 3.1 mph5.0 kmh 29.90 in1012.5 mb 0.00 in0.0 mm 0.00 in0.0 mm 0.07 in1.8 mm
11:45 AM 70.3°F21.3°C 53.9°F12.2°C 56% 1.5 mph E2.4 kmh E 2.2 mph3.5 kmh 29.90 in1012.5 mb 0.00 in0.0 mm 0.00 in0.0 mm 0.07 in1.8 mm
12:00 PM 64.9°F18.3°C 49.8°F9.9°C 58% 1.6 mph N2.6 kmh N 2.2 mph3.5 kmh 29.90 in1012.5 mb 0.00 in0.0 mm 0.00 in0.0 mm 0.07 in1.8 mm
12:15 PM 62.8°F17.1°C 50.9°F10.5°C 65% 1.0 mph SW1.6 kmh SW 2.2 mph3.5 kmh 29.90 in1012.5 mb 0.00 in0.0 mm 0.00 in0.0 mm 0.07 in1.8 mm
12:30 PM 61.7°F16.5°C 50.6°F10.3°C 67% 1.9 mph E3.1 kmh E 3.1 mph5.0 kmh 29.89 in1012.2 mb 0.00 in0.0 mm 0.00 in0.0 mm 0.07 in1.8 mm
12:45 PM 63.3°F17.4°C 50.5°F10.3°C 63% 1.4 mph E2.3 kmh E 2.2 mph3.5 kmh 29.89 in1012.2 mb 0.00 in0.0 mm 0.00 in0.0 mm 0.07 in1.8 mm
01:00 PM 63.7°F17.6°C 50.4°F10.2°C 62% 1.7 mph NE2.7 kmh NE 3.1 mph5.0 kmh 29.89 in1012.2 mb 0.00 in0.0 mm 0.00 in0.0 mm 0.07 in1.8 mm
01:15 PM 63.1°F17.3°C 51.6°F10.9°C 66% 1.2 mph N1.9 kmh N 3.1 mph5.0 kmh 29.90 in1012.5 mb 0.00 in0.0 mm 0.00 in0.0 mm 0.07 in1.8 mm
02:00 PM 62.1°F16.7°C 51.8°F11.0°C 69% 1.8 mph NNE2.9 kmh NNE 3.1 mph5.0 kmh 29.90 in1012.5 mb 0.00 in0.0 mm 0.00 in0.0 mm 0.07 in1.8 mm
02:45 PM 63.1°F17.3°C 49.5°F9.7°C 61% 1.8 mph S2.9 kmh S 2.2 mph3.5 kmh 29.89 in1012.2 mb 0.00 in0.0 mm 0.00 in0.0 mm 0.07 in1.8 mm
03:00 PM 62.4°F16.9°C 50.5°F10.3°C 65% 1.9 mph NW3.1 kmh NW 3.1 mph5.0 kmh 29.90 in1012.5 mb 0.00 in0.0 mm 0.00 in0.0 mm 0.07 in1.8 mm
03:15 PM 62.4°F16.9°C 50.5°F10.3°C 65% 2.1 mph NE3.4 kmh NE 3.8 mph6.1 kmh 29.90 in1012.5 mb 0.00 in0.0 mm 0.00 in0.0 mm 0.07 in1.8 mm
03:30 PM 62.8°F17.1°C 50.9°F10.5°C 65% 1.8 mph WSW2.9 kmh WSW 3.1 mph5.0 kmh 29.89 in1012.2 mb 0.00 in0.0 mm 0.00 in0.0 mm 0.07 in1.8 mm
03:45 PM 61.7°F16.5°C 49.8°F9.9°C 65% 2.4 mph SW3.9 kmh SW 4.5 mph7.2 kmh 29.90 in1012.5 mb 0.00 in0.0 mm 0.00 in0.0 mm 0.07 in1.8 mm
04:00 PM 60.8°F16.0°C 49.4°F9.7°C 66% 2.3 mph SSE3.7 kmh SSE 3.1 mph5.0 kmh 29.91 in1012.9 mb 0.00 in0.0 mm 0.00 in0.0 mm 0.07 in1.8 mm
04:30 PM 60.3°F15.7°C 49.7°F9.8°C 68% 3.0 mph NNE4.8 kmh NNE 7.6 mph12.2 kmh 29.90 in1012.5 mb 0.00 in0.0 mm 0.00 in0.0 mm 0.07 in1.8 mm
04:45 PM 60.1°F15.6°C 50.3°F10.2°C 70% 2.1 mph SW3.4 kmh SW 3.8 mph6.1 kmh 29.91 in1012.9 mb 0.00 in0.0 mm 0.00 in0.0 mm 0.07 in1.8 mm
05:00 PM 60.1°F15.6°C 50.3°F10.2°C 70% 2.1 mph WSW3.4 kmh WSW 3.1 mph5.0 kmh 29.91 in1012.9 mb 0.00 in0.0 mm 0.00 in0.0 mm 0.07 in1.8 mm
05:15 PM 59.7°F15.4°C 49.9°F9.9°C 70% 1.9 mph SW3.1 kmh SW 3.8 mph6.1 kmh 29.91 in1012.9 mb 0.00 in0.0 mm 0.00 in0.0 mm 0.07 in1.8 mm
05:30 PM 59.2°F15.1°C 49.8°F9.9°C 71% 1.7 mph SSW2.7 kmh SSW 2.2 mph3.5 kmh 29.91 in1012.9 mb 0.00 in0.0 mm 0.00 in0.0 mm 0.07 in1.8 mm
06:00 PM 57.4°F14.1°C 49.2°F9.6°C 74% 1.9 mph W3.1 kmh W 3.1 mph5.0 kmh 29.91 in1012.9 mb 0.00 in0.0 mm 0.00 in0.0 mm 0.07 in1.8 mm
06:15 PM 56.3°F13.5°C 48.8°F9.3°C 76% 0.7 mph S1.1 kmh S 2.2 mph3.5 kmh 29.92 in1013.2 mb 0.00 in0.0 mm 0.00 in0.0 mm 0.07 in1.8 mm
06:30 PM 55.6°F13.1°C 49.2°F9.6°C 79% 1.6 mph W2.6 kmh W 3.1 mph5.0 kmh 29.91 in1012.9 mb 0.00 in0.0 mm 0.00 in0.0 mm 0.07 in1.8 mm
07:00 PM 55.4°F13.0°C 49.3°F9.6°C 80% 2.1 mph SSW3.4 kmh SSW 3.1 mph5.0 kmh 29.92 in1013.2 mb 0.00 in0.0 mm 0.00 in0.0 mm 0.07 in1.8 mm
07:30 PM 54.1°F12.3°C 48.1°F8.9°C 80% 1.6 mph SSW2.6 kmh SSW 5.4 mph8.7 kmh 29.93 in1013.5 mb 0.00 in0.0 mm 0.00 in0.0 mm 0.07 in1.8 mm
07:45 PM 53.2°F11.8°C 48.2°F9.0°C 83% 2.0 mph SW3.2 kmh SW 3.8 mph6.1 kmh 29.93 in1013.5 mb 0.00 in0.0 mm 0.00 in0.0 mm 0.07 in1.8 mm
08:00 PM 52.7°F11.5°C 48.3°F9.1°C 85% 1.9 mph SSW3.1 kmh SSW 3.1 mph5.0 kmh 29.93 in1013.5 mb 0.00 in0.0 mm 0.00 in0.0 mm 0.07 in1.8 mm
08:15 PM 52.2°F11.2°C 48.4°F9.1°C 87% 2.2 mph SSW3.5 kmh SSW 3.1 mph5.0 kmh 29.93 in1013.5 mb 0.00 in0.0 mm 0.00 in0.0 mm 0.07 in1.8 mm
08:30 PM 52.0°F11.1°C 48.2°F9.0°C 87% 3.1 mph SSE5.0 kmh SSE 5.4 mph8.7 kmh 29.93 in1013.5 mb 0.00 in0.0 mm 0.00 in0.0 mm 0.07 in1.8 mm
08:45 PM 51.6°F10.9°C 48.2°F9.0°C 88% 1.3 mph S2.1 kmh S 2.2 mph3.5 kmh 29.94 in1013.9 mb 0.00 in0.0 mm 0.00 in0.0 mm 0.07 in1.8 mm
09:00 PM 50.7°F10.4°C 47.6°F8.7°C 89% 2.2 mph W3.5 kmh W 3.8 mph6.1 kmh 29.93 in1013.5 mb 0.00 in0.0 mm 0.00 in0.0 mm 0.07 in1.8 mm
09:15 PM 50.5°F10.3°C 47.7°F8.7°C 90% 2.6 mph SW4.2 kmh SW 4.5 mph7.2 kmh 29.93 in1013.5 mb 0.00 in0.0 mm 0.00 in0.0 mm 0.07 in1.8 mm
09:30 PM 50.5°F10.3°C 48.0°F8.9°C 91% 2.7 mph S4.3 kmh S 4.5 mph7.2 kmh 29.93 in1013.5 mb 0.00 in0.0 mm 0.00 in0.0 mm 0.07 in1.8 mm
09:45 PM 50.5°F10.3°C 48.0°F8.9°C 91% 1.9 mph SW3.1 kmh SW 3.8 mph6.1 kmh 29.94 in1013.9 mb 0.00 in0.0 mm 0.00 in0.0 mm 0.07 in1.8 mm
10:00 PM 50.4°F10.2°C 47.8°F8.8°C 91% 2.0 mph SW3.2 kmh SW 3.1 mph5.0 kmh 29.94 in1013.9 mb 0.00 in0.0 mm 0.00 in0.0 mm 0.07 in1.8 mm
10:15 PM 50.4°F10.2°C 47.8°F8.8°C 91% 2.3 mph SW3.7 kmh SW 5.4 mph8.7 kmh 29.95 in1014.2 mb 0.00 in0.0 mm 0.00 in0.0 mm 0.07 in1.8 mm
10:30 PM 49.8°F9.9°C 47.6°F8.7°C 92% 1.3 mph SW2.1 kmh SW 2.2 mph3.5 kmh 29.95 in1014.2 mb 0.00 in0.0 mm 0.00 in0.0 mm 0.07 in1.8 mm
10:45 PM 49.3°F9.6°C 47.1°F8.4°C 92% 1.3 mph WSW2.1 kmh WSW 3.1 mph5.0 kmh 29.94 in1013.9 mb 0.00 in0.0 mm 0.00 in0.0 mm 0.07 in1.8 mm
11:00 PM 48.4°F9.1°C 46.2°F7.9°C 92% 2.2 mph S3.5 kmh S 4.5 mph7.2 kmh 29.94 in1013.9 mb 0.00 in0.0 mm 0.00 in0.0 mm 0.07 in1.8 mm
11:15 PM 47.3°F8.5°C 45.4°F7.4°C 93% 1.3 mph WSW2.1 kmh WSW 3.1 mph5.0 kmh 29.94 in1013.9 mb 0.00 in0.0 mm 0.00 in0.0 mm 0.07 in1.8 mm
11:30 PM 46.6°F8.1°C 44.9°F7.2°C 94% 0.9 mph WNW1.4 kmh WNW 3.1 mph5.0 kmh 29.94 in1013.9 mb 0.00 in0.0 mm 0.00 in0.0 mm 0.07 in1.8 mm
11:45 PM 46.2°F7.9°C 44.9°F7.2°C 95% 1.1 mph NW1.8 kmh NW 2.2 mph3.5 kmh 29.94 in1013.9 mb 0.00 in0.0 mm 0.00 in0.0 mm 0.07 in1.8 mm